KR-0464 weather

Oryukdo SK Apartments Heliports
Busan, Busan Gwang'yeogsi, South Korea

Public forecast

Using degrees Celsius for public forecast. Weather courtesy of forecast.io.

METAR (pilot weather report)

Closest report is Gimhae International Airport, 10.0 nm (18.5 km) WNW. Retrieved 2019/07/21 08:00 UTC (30 minutes ago):

RKPK 210800Z 22009KT 9999 SCT025 BKN070 27/23 Q1005

TAF (pilot weather forecast)

Closest forecast is Gimhae International Airport, 10.0 nm (18.5 km) WNW. Retrieved 2019/07/21 06:00 UTC (3 hours ago):

TAF RKPK 210500Z 2106/2212 21008KT 9999 SCT020 BKN030 TN22/2121Z TX30/2206Z BECMG 2108/2109 SCT030 BECMG 2114/2115 33006KT BECMG 2202/2203 21008KT